Aérodrome :
LOGIN :

S'inscrire | Disclaimer

   EN    FR    IT 

 










Légende :    VFR   VFR Marginal   IFR   IFR Intensif   IFR Très Intensif
Visi : 
Plafond : 
>= 8 km
>= 3000ft
5 à 8 km
1000 à 3000 ft
1500m à 5 km
500 à 1000 ft
800 à 1500m
200 à 500 ft
< 800m
< 200 ft
Symboles :   Orages  Brouillard  Fortes neiges  Fortes précipitations  Vent > 20 kt
SIGMETs :   Divers  Orages  Givrage  Turbulence  Onde Orograph.  Cendres Volcan.







- Altitude de l'aérodrome : 90 ft
- Code IATA : NTE
- Voir les cartes d'approche


LFRS - Nantes

DERNIER METAR :
  • 220000Z AUTO 26016KT 5000 -DZ BR OVC004 12/11 Q1019 TEMPO 2500 -DZRA BECMG 25015G30KT

METARs EXPIRÉS :
  • 212330Z AUTO 26016KT 4300 -DZ BR OVC004 12/11 Q1019 TEMPO 2500 -DZRA BECMG 25015G30KT
  • 212300Z AUTO 26015KT 4000 BR OVC004 12/11 Q1019 TEMPO 28017G27KT
  • 212230Z AUTO 26014KT 4300 -RADZ BR OVC004 12/11 Q1019 TEMPO 28017G27KT
  • 212200Z AUTO 26015KT 4300 -RADZ BR OVC004 12/11 Q1019 TEMPO 28017G27KT
  • 212130Z AUTO 26014KT 4200 BR OVC004 12/11 Q1019 TEMPO 28017G27KT

TAF TAF LFRS
Valide du 22 à 00h jusqu'au 23 à 06h UTC


212300Z 2200/2306 25015G30KT 5000 -DZ BKN006
TEMPO 2200/2206 2500 -DZRA OVC003
BECMG 2206/2208 27025G40KT 9999 NSW BKN013
BECMG 2208/2210 BKN016
BECMG 2211/2213 28015G30KT
BECMG 2214/2216 28012KT
BECMG 2221/2223 VRB03KT
TEMPO 2223/2301 3000 BR BKN007
BECMG 2301/2303 19010KT
TEMPO 2303/2306 3000 -RADZ BKN005
ATIS : +33 2 40 05 12 74
Pas de NOTAMs connus pour ce terrain.



MET'MAP, la Météo Aéronautique d'un coup d'oeil ! - Copyright ORBIFLY Décembre 2007 - Disclaimer

ORBIFLY MET'MAP TEAM :

Programmation & Développement : Alexandra Zaïnal
Conception & Développement : Baudouin d'Aumeries
Co-Programmation & Développement : Marc-Olivier Méhu
Soutien technique & logistique : Manuel Goepfert

Contact : metmap@orbifly.com




SOURCES & CREDITS :

   NOAA